Time;durP1;ratioP1;P1;durP2;ratioP2;P2;SDS_P1;SDS_P2;PMS_P1;PMS_P2;Temp;Humidity;BMP_temperature;BMP_pressure;BME280_temperature;BME280_humidity;BME280_pressure;Samples;Min_cycle;Max_cycle;Signal;HPM_P1;HPM_P2
2023/12/01 00:01:17;;;;;;;7.53;6.93;;;19.80;39.50;;;;;;5054069;28;20225;-66
2023/12/01 00:03:43;;;;;;;6.97;6.37;;;19.80;39.50;;;;;;5051693;28;20364;-65
2023/12/01 00:06:08;;;;;;;6.90;6.30;;;19.80;39.50;;;;;;5037516;28;20276;-65
2023/12/01 00:08:34;;;;;;;7.47;6.73;;;19.80;39.50;;;;;;5063676;28;20240;-66
2023/12/01 00:11:00;;;;;;;6.73;6.13;;;19.80;39.50;;;;;;5064368;28;20232;-65
2023/12/01 00:13:25;;;;;;;6.70;6.20;;;19.80;39.50;;;;;;5049225;28;20868;-65
2023/12/01 00:15:51;;;;;;;7.47;6.73;;;19.80;39.50;;;;;;5055512;28;20826;-65
2023/12/01 00:18:17;;;;;;;7.60;7.00;;;19.80;39.50;;;;;;5034207;28;20232;-65
2023/12/01 00:20:43;;;;;;;7.50;6.80;;;19.80;39.50;;;;;;5053204;28;20230;-65
2023/12/01 00:23:09;;;;;;;7.67;6.37;;;19.80;39.50;;;;;;5047376;28;20233;-64
2023/12/01 00:25:34;;;;;;;7.10;6.50;;;19.80;39.50;;;;;;5070139;28;20221;-65
2023/12/01 00:28:00;;;;;;;6.87;6.37;;;19.80;39.50;;;;;;5055012;28;20250;-66
2023/12/01 00:30:29;;;;;;;7.33;6.73;;;19.80;39.50;;;;;;5052921;28;20221;-65
2023/12/01 00:32:55;;;;;;;7.03;6.43;;;19.80;39.40;;;;;;5031932;28;20222;-64
2023/12/01 00:35:21;;;;;;;6.57;6.00;;;19.80;39.40;;;;;;5058733;28;20436;-65
2023/12/01 00:37:46;;;;;;;7.50;6.80;;;19.80;39.50;;;;;;5066670;28;20454;-65
2023/12/01 00:40:12;;;;;;;7.33;6.83;;;19.80;39.50;;;;;;5046972;28;20513;-65
2023/12/01 00:42:38;;;;;;;6.70;6.10;;;19.80;39.50;;;;;;5058882;27;20718;-64
2023/12/01 00:45:05;;;;;;;7.23;6.57;;;19.80;39.50;;;;;;5075776;28;20237;-65
2023/12/01 00:47:31;;;;;;;6.50;6.00;;;19.80;39.40;;;;;;5071512;28;20224;-65
2023/12/01 00:49:56;;;;;;;7.63;7.00;;;19.80;39.50;;;;;;5074226;28;20432;-65
2023/12/01 00:52:22;;;;;;;6.87;6.37;;;19.80;39.50;;;;;;5071841;28;20225;-65
2023/12/01 00:54:47;;;;;;;7.60;6.90;;;19.80;39.50;;;;;;5075055;28;20323;-65
2023/12/01 00:57:13;;;;;;;7.03;6.33;;;19.80;39.50;;;;;;5052219;28;20930;-65
2023/12/01 00:59:39;;;;;;;7.70;7.00;;;19.80;39.60;;;;;;5053042;28;20537;-65
2023/12/01 01:02:04;;;;;;;7.07;6.47;;;19.80;39.50;;;;;;5066902;28;20681;-65
2023/12/01 01:04:30;;;;;;;6.70;6.20;;;19.80;39.60;;;;;;5059482;28;20700;-65
2023/12/01 01:06:55;;;;;;;6.00;5.60;;;19.80;39.50;;;;;;5053043;28;20263;-65
2023/12/01 01:09:21;;;;;;;6.80;6.20;;;19.80;39.60;;;;;;5058365;28;20302;-65
2023/12/01 01:11:47;;;;;;;7.10;6.50;;;19.80;39.60;;;;;;5072377;28;20220;-65
2023/12/01 01:14:13;;;;;;;6.97;6.43;;;19.80;39.60;;;;;;5036026;28;20221;-66
2023/12/01 01:16:38;;;;;;;7.30;6.70;;;19.80;39.60;;;;;;5055925;28;20652;-65
2023/12/01 01:19:04;;;;;;;6.23;5.63;;;19.80;39.60;;;;;;5068786;28;20471;-65
2023/12/01 01:21:29;;;;;;;6.13;5.53;;;19.70;39.50;;;;;;5054044;28;20244;-65
2023/12/01 01:23:55;;;;;;;7.67;7.00;;;19.70;39.40;;;;;;5060783;28;20237;-66
2023/12/01 01:26:21;;;;;;;6.13;5.73;;;19.70;39.50;;;;;;5066298;28;20256;-65
2023/12/01 01:28:47;;;;;;;5.83;5.43;;;19.70;39.50;;;;;;5058118;28;20333;-66
2023/12/01 01:31:13;;;;;;;6.47;5.97;;;19.80;39.50;;;;;;5055649;28;20424;-65
2023/12/01 01:33:38;;;;;;;6.57;5.97;;;19.70;39.40;;;;;;5049516;28;20295;-66
2023/12/01 01:36:04;;;;;;;6.97;6.27;;;19.70;39.50;;;;;;5065733;28;20224;-66
2023/12/01 01:38:30;;;;;;;6.57;5.97;;;19.70;39.40;;;;;;5052055;28;20281;-65
2023/12/01 01:40:55;;;;;;;6.33;5.90;;;19.70;39.50;;;;;;5054968;28;20230;-65
2023/12/01 01:43:22;;;;;;;6.43;5.93;;;19.70;39.50;;;;;;5051679;28;20316;-65
2023/12/01 01:46:04;;;;;;;6.80;6.20;;;19.70;39.50;;;;;;5055758;28;20217;-65
2023/12/01 01:48:31;;;;;;;6.37;5.87;;;19.80;39.60;;;;;;5047931;28;20929;-65
2023/12/01 01:50:58;;;;;;;6.33;5.83;;;19.70;39.50;;;;;;5054496;28;20467;-65
2023/12/01 01:53:24;;;;;;;6.17;5.70;;;19.80;39.60;;;;;;5052306;28;20437;-65
2023/12/01 01:55:50;;;;;;;5.60;5.20;;;19.70;39.50;;;;;;5074405;28;20457;-66
2023/12/01 01:58:16;;;;;;;6.17;5.73;;;19.70;39.50;;;;;;5037549;28;20498;-65
2023/12/01 02:00:49;;;;;;;6.53;5.93;;;19.80;39.60;;;;;;5060521;28;21107;-65
2023/12/01 02:03:19;;;;;;;6.50;6.10;;;19.70;39.50;;;;;;5052202;28;20249;-65
2023/12/01 02:05:48;;;;;;;5.80;5.47;;;19.80;39.60;;;;;;5049696;28;20447;-65
2023/12/01 02:08:29;;;;;;;6.00;5.50;;;19.70;39.50;;;;;;5058061;28;20555;-65
2023/12/01 02:10:55;;;;;;;6.77;6.17;;;19.70;39.50;;;;;;5070699;28;20461;-65
2023/12/01 02:13:22;;;;;;;5.80;5.40;;;19.70;39.50;;;;;;5047360;28;20458;-65
2023/12/01 02:15:51;;;;;;;6.97;6.37;;;19.70;39.50;;;;;;5053040;28;20550;-65
2023/12/01 02:18:25;;;;;;;6.90;6.30;;;19.70;39.50;;;;;;5050462;28;20436;-65
2023/12/01 02:20:52;;;;;;;6.77;6.17;;;19.70;39.60;;;;;;5052243;28;20462;-65
2023/12/01 02:23:18;;;;;;;5.93;5.40;;;19.70;39.50;;;;;;5063324;28;20455;-65
2023/12/01 02:25:44;;;;;;;5.67;5.27;;;19.70;39.60;;;;;;5048443;28;20429;-64
2023/12/01 02:28:10;;;;;;;5.67;5.27;;;19.70;39.50;;;;;;5042156;28;20947;-64
2023/12/01 02:30:35;;;;;;;6.43;5.83;;;19.70;39.50;;;;;;5053480;28;20452;-64
2023/12/01 02:33:01;;;;;;;6.10;5.67;;;19.70;39.50;;;;;;5058896;28;20350;-64
2023/12/01 02:35:29;;;;;;;6.17;5.63;;;19.70;39.50;;;;;;5047642;28;20224;-64
2023/12/01 02:37:59;;;;;;;6.00;5.60;;;19.70;39.50;;;;;;5059777;28;20218;-64
2023/12/01 02:40:26;;;;;;;5.87;5.40;;;19.80;39.60;;;;;;5035612;28;20445;-64
2023/12/01 02:42:53;;;;;;;5.07;4.77;;;19.70;39.50;;;;;;5054146;28;20476;-64
2023/12/01 02:45:19;;;;;;;5.57;5.20;;;19.70;39.50;;;;;;5030375;28;20425;-64
2023/12/01 02:47:47;;;;;;;6.90;6.40;;;19.70;39.50;;;;;;5058155;28;20493;-65
2023/12/01 02:50:14;;;;;;;5.70;5.30;;;19.70;39.60;;;;;;5062697;28;20441;-65
2023/12/01 02:52:41;;;;;;;5.37;5.07;;;19.70;39.50;;;;;;5049300;28;20460;-65
2023/12/01 02:55:08;;;;;;;5.37;4.97;;;19.70;39.60;;;;;;5051440;28;20502;-64
2023/12/01 02:57:39;;;;;;;5.83;5.43;;;19.70;39.50;;;;;;5051650;28;21032;-64
2023/12/01 03:00:06;;;;;;;5.70;5.30;;;19.70;39.50;;;;;;5062805;28;20459;-64
2023/12/01 03:02:32;;;;;;;6.03;5.63;;;19.70;39.60;;;;;;5036710;28;20483;-64
2023/12/01 03:04:58;;;;;;;5.87;5.47;;;19.70;39.50;;;;;;5036695;28;20449;-64
2023/12/01 03:07:24;;;;;;;5.30;4.90;;;19.70;39.50;;;;;;5046661;28;20462;-64
2023/12/01 03:09:49;;;;;;;5.57;5.27;;;19.70;39.50;;;;;;5049007;28;20646;-65
2023/12/01 03:12:15;;;;;;;5.83;5.37;;;19.70;39.50;;;;;;5061280;28;20225;-65
2023/12/01 03:14:40;;;;;;;5.13;4.73;;;19.70;39.50;;;;;;5053398;28;20317;-64
2023/12/01 03:17:06;;;;;;;5.90;5.50;;;19.70;39.50;;;;;;5047510;28;20233;-64
2023/12/01 03:19:32;;;;;;;5.70;5.30;;;19.70;39.50;;;;;;5051933;28;20225;-64
2023/12/01 03:21:57;;;;;;;5.50;5.10;;;19.70;39.50;;;;;;5054495;28;20252;-64
2023/12/01 03:24:23;;;;;;;6.13;5.63;;;19.70;39.50;;;;;;5066079;28;20251;-64
2023/12/01 03:26:48;;;;;;;5.90;5.30;;;19.70;39.50;;;;;;5060649;28;20565;-64
2023/12/01 03:29:14;;;;;;;5.93;5.43;;;19.70;39.50;;;;;;5063594;28;20252;-64
2023/12/01 03:31:40;;;;;;;5.33;4.93;;;19.70;39.50;;;;;;5051562;28;20338;-64
2023/12/01 03:34:06;;;;;;;5.10;4.80;;;19.70;39.50;;;;;;5048887;28;20230;-64
2023/12/01 03:36:32;;;;;;;5.60;5.30;;;19.70;39.60;;;;;;5044425;28;20759;-64
2023/12/01 03:38:58;;;;;;;5.50;5.10;;;19.70;39.50;;;;;;5051989;28;20297;-64
2023/12/01 03:41:23;;;;;;;5.07;4.77;;;19.70;39.50;;;;;;5047683;28;20446;-64
2023/12/01 03:43:49;;;;;;;5.00;4.70;;;19.70;39.50;;;;;;5041262;28;20229;-64
2023/12/01 03:46:14;;;;;;;5.27;4.97;;;19.70;39.50;;;;;;5061020;28;20263;-64
2023/12/01 03:48:40;;;;;;;5.63;5.20;;;19.70;39.50;;;;;;5055584;28;20228;-64
2023/12/01 03:51:09;;;;;;;5.53;5.20;;;19.70;39.50;;;;;;5028760;28;20930;-63
2023/12/01 03:53:36;;;;;;;5.07;4.77;;;19.70;39.50;;;;;;5038251;28;20225;-64
2023/12/01 03:56:02;;;;;;;6.03;5.63;;;19.70;39.50;;;;;;5048374;28;20443;-63
2023/12/01 03:58:28;;;;;;;5.23;4.93;;;19.70;39.50;;;;;;5051182;28;20445;-63
2023/12/01 04:00:54;;;;;;;5.03;4.73;;;19.70;39.40;;;;;;5048254;28;20469;-64
2023/12/01 04:03:20;;;;;;;5.57;5.17;;;19.70;39.50;;;;;;5057534;28;21095;-64
2023/12/01 04:05:47;;;;;;;5.20;4.83;;;19.70;39.50;;;;;;5060297;28;20231;-64
2023/12/01 04:08:12;;;;;;;5.23;4.93;;;19.70;39.40;;;;;;5050137;28;20275;-64
2023/12/01 04:10:38;;;;;;;5.70;5.30;;;19.70;39.40;;;;;;5050366;28;20536;-64
2023/12/01 04:13:12;;;;;;;4.60;4.30;;;19.70;39.50;;;;;;5050698;28;20281;-64
2023/12/01 04:15:38;;;;;;;5.90;5.40;;;19.70;39.50;;;;;;5063436;28;20233;-63
2023/12/01 04:18:06;;;;;;;4.53;4.23;;;19.70;39.40;;;;;;5056965;28;20429;-64
2023/12/01 04:20:38;;;;;;;5.00;4.70;;;19.70;39.50;;;;;;5047351;28;20283;-64
2023/12/01 04:23:11;;;;;;;5.60;5.20;;;19.70;39.50;;;;;;5056783;28;20521;-64
2023/12/01 04:25:40;;;;;;;5.17;4.87;;;19.70;39.50;;;;;;5057274;28;20509;-64
2023/12/01 04:28:06;;;;;;;5.50;5.10;;;19.70;39.40;;;;;;5045097;28;20443;-64
2023/12/01 04:30:32;;;;;;;5.17;4.87;;;19.70;39.50;;;;;;5040970;28;20807;-69
2023/12/01 04:32:59;;;;;;;5.73;5.33;;;19.70;39.50;;;;;;5055850;28;20531;-67
2023/12/01 04:35:32;;;;;;;5.07;4.77;;;19.70;39.50;;;;;;5048737;28;20792;-66
2023/12/01 04:38:00;;;;;;;5.40;5.00;;;19.70;39.50;;;;;;5048388;28;20440;-65
2023/12/01 04:40:27;;;;;;;5.00;4.70;;;19.70;39.50;;;;;;5050320;28;20492;-65
2023/12/01 04:42:57;;;;;;;4.90;4.60;;;19.70;39.40;;;;;;5042790;28;20501;-65
2023/12/01 04:45:25;;;;;;;4.50;4.20;;;19.70;39.50;;;;;;5048819;28;20731;-65
2023/12/01 04:47:52;;;;;;;5.80;5.40;;;19.70;39.40;;;;;;5055819;28;20467;-65
2023/12/01 04:50:21;;;;;;;5.00;4.70;;;19.70;39.40;;;;;;5056129;28;20470;-64
2023/12/01 04:52:49;;;;;;;4.60;4.30;;;19.70;39.30;;;;;;5050388;28;20450;-65
2023/12/01 04:55:18;;;;;;;4.90;4.60;;;19.70;39.40;;;;;;5052690;28;20542;-65
2023/12/01 04:57:45;;;;;;;5.30;4.90;;;19.70;39.40;;;;;;5036104;28;21413;-65
2023/12/01 05:00:22;;;;;;;5.00;4.70;;;19.70;39.40;;;;;;5051299;28;20434;-65
2023/12/01 05:02:54;;;;;;;5.10;4.80;;;19.70;39.30;;;;;;5051439;28;20556;-65
2023/12/01 05:05:24;;;;;;;4.50;4.20;;;19.70;39.30;;;;;;5045554;28;20449;-65
2023/12/01 05:07:51;;;;;;;4.97;4.67;;;19.70;39.30;;;;;;5041933;28;20589;-65
2023/12/01 05:10:22;;;;;;;5.10;4.80;;;19.70;39.30;;;;;;5043360;28;20439;-65
2023/12/01 05:12:49;;;;;;;5.40;5.00;;;19.70;40.00;;;;;;5043282;28;21886;-65
2023/12/01 05:15:19;;;;;;;4.93;4.63;;;19.70;39.30;;;;;;5037470;28;20450;-65
2023/12/01 05:17:50;;;;;;;5.03;4.63;;;19.70;39.30;;;;;;5030558;28;20534;-65
2023/12/01 05:20:17;;;;;;;4.83;4.50;;;19.70;39.30;;;;;;5040928;28;20429;-65
2023/12/01 05:22:50;;;;;;;5.37;5.07;;;19.70;39.30;;;;;;5026336;28;20612;-65
2023/12/01 05:25:17;;;;;;;5.20;4.80;;;19.70;39.30;;;;;;5040778;28;20444;-67
2023/12/01 05:27:54;;;;;;;4.53;4.23;;;19.70;39.30;;;;;;5017260;28;20455;-67
2023/12/01 05:30:22;;;;;;;5.10;4.80;;;19.70;39.20;;;;;;5046518;28;20931;-72
2023/12/01 05:32:49;;;;;;;4.40;4.10;;;19.70;39.30;;;;;;5039533;28;20452;-69
2023/12/01 05:35:16;;;;;;;4.27;4.07;;;19.80;39.30;;;;;;5017277;28;20455;-67
2023/12/01 05:37:50;;;;;;;5.20;4.90;;;19.80;39.50;;;;;;5030693;28;20470;-67
2023/12/01 05:40:32;;;;;;;4.93;4.53;;;19.80;39.50;;;;;;5043069;28;20637;-66
2023/12/01 05:42:58;;;;;;;4.93;4.63;;;19.80;39.50;;;;;;5041762;28;20456;-66
2023/12/01 05:45:26;;;;;;;4.10;3.90;;;19.80;39.50;;;;;;5042222;28;20917;-65
2023/12/01 05:47:52;;;;;;;4.07;3.80;;;19.80;39.50;;;;;;5029570;28;20433;-65
2023/12/01 05:50:28;;;;;;;4.17;3.87;;;19.90;39.70;;;;;;5047743;28;20472;-65
2023/12/01 05:52:56;;;;;;;4.70;4.40;;;19.80;39.60;;;;;;5026133;28;21050;-66
2023/12/01 05:55:23;;;;;;;4.63;4.33;;;19.90;39.70;;;;;;5036468;28;20478;-65
2023/12/01 05:57:55;;;;;;;4.30;4.03;;;19.80;39.70;;;;;;5040279;28;20465;-65
2023/12/01 06:00:24;;;;;;;4.57;4.27;;;19.80;39.60;;;;;;5045257;28;21059;-65
2023/12/01 06:02:51;;;;;;;5.07;4.50;;;19.80;39.60;;;;;;5046308;28;20453;-65
2023/12/01 06:05:19;;;;;;;4.87;4.47;;;19.90;39.70;;;;;;5044972;28;20472;-65
2023/12/01 06:07:49;;;;;;;4.93;4.60;;;19.80;39.60;;;;;;5039187;28;20764;-68
2023/12/01 06:10:16;;;;;;;5.03;4.73;;;19.80;39.60;;;;;;5039295;28;21326;-67
2023/12/01 06:12:41;;;;;;;9.20;4.80;;;19.80;39.50;;;;;;5040580;28;20436;-70
2023/12/01 06:15:10;;;;;;;8.33;5.83;;;19.90;39.60;;;;;;5040601;28;20451;-66
2023/12/01 06:17:41;;;;;;;7.13;4.70;;;19.90;39.50;;;;;;5039519;28;20230;-65
2023/12/01 06:20:17;;;;;;;6.50;5.07;;;19.80;39.30;;;;;;5035350;28;20436;-66
2023/12/01 06:22:53;;;;;;;8.63;5.30;;;19.80;39.20;;;;;;5045762;28;20515;-65
2023/12/01 06:25:21;;;;;;;9.17;5.27;;;19.80;39.10;;;;;;5044945;28;20433;-64
2023/12/01 06:27:47;;;;;;;5.23;4.60;;;19.90;39.20;;;;;;5042447;28;22096;-63
2023/12/01 06:30:14;;;;;;;4.30;4.00;;;19.80;39.00;;;;;;5047758;28;20461;-66
2023/12/01 06:32:46;;;;;;;11.73;8.87;;;19.90;39.10;;;;;;5041256;28;21164;-64
2023/12/01 06:35:16;;;;;;;11.73;9.60;;;19.80;39.00;;;;;;5044873;28;20429;-65
2023/12/01 06:37:44;;;;;;;5.40;4.67;;;19.90;39.10;;;;;;5042918;28;20481;-65
2023/12/01 06:40:11;;;;;;;5.77;5.13;;;19.90;39.10;;;;;;5038553;28;21166;-65
2023/12/01 06:42:41;;;;;;;5.20;4.70;;;19.90;39.10;;;;;;5038112;28;20449;-65
2023/12/01 06:45:12;;;;;;;5.10;4.47;;;19.90;39.20;;;;;;5038590;28;20532;-64
2023/12/01 06:47:40;;;;;;;4.40;4.17;;;19.90;39.10;;;;;;5037474;28;21147;-65
2023/12/01 06:50:09;;;;;;;4.70;4.40;;;19.90;39.10;;;;;;5054903;28;20567;-64
2023/12/01 06:52:36;;;;;;;5.50;5.00;;;19.90;39.10;;;;;;5037015;28;20532;-64
2023/12/01 06:55:04;;;;;;;6.00;5.43;;;19.80;39.00;;;;;;5036635;28;20433;-64
2023/12/01 06:57:30;;;;;;;5.50;4.43;;;19.80;39.00;;;;;;5040443;28;20805;-65
2023/12/01 06:59:55;;;;;;;5.20;4.80;;;19.80;39.00;;;;;;5046012;28;20762;-67
2023/12/01 07:02:22;;;;;;;4.40;4.10;;;19.90;39.10;;;;;;5041288;28;20247;-64
2023/12/01 07:04:48;;;;;;;4.43;4.13;;;19.80;39.00;;;;;;5062555;28;20240;-65
2023/12/01 07:07:14;;;;;;;4.80;4.30;;;19.90;39.10;;;;;;5048396;28;20543;-66
2023/12/01 07:09:45;;;;;;;4.30;4.03;;;19.90;39.10;;;;;;5062142;28;20221;-65
2023/12/01 07:12:10;;;;;;;5.27;4.83;;;19.80;39.00;;;;;;5057411;28;20271;-65
2023/12/01 07:14:38;;;;;;;4.97;4.67;;;19.90;39.10;;;;;;5058836;28;20490;-65
2023/12/01 07:17:05;;;;;;;4.60;4.30;;;19.90;39.10;;;;;;5050953;28;20231;-65
2023/12/01 07:19:34;;;;;;;4.57;4.27;;;19.90;39.10;;;;;;5057372;28;20534;-65
2023/12/01 07:22:00;;;;;;;4.27;4.00;;;19.80;39.00;;;;;;5058805;28;20575;-65
2023/12/01 07:24:25;;;;;;;5.03;4.53;;;19.80;39.00;;;;;;5060862;28;20543;-65
2023/12/01 07:26:52;;;;;;;3.93;3.70;;;19.90;39.10;;;;;;5064506;28;20759;-65
2023/12/01 07:29:18;;;;;;;4.43;4.03;;;19.80;39.00;;;;;;5067509;28;20647;-66
2023/12/01 07:31:44;;;;;;;4.40;4.20;;;19.80;39.00;;;;;;5062614;28;20432;-65
2023/12/01 07:34:11;;;;;;;4.57;4.17;;;19.80;39.00;;;;;;5056996;28;20432;-64
2023/12/01 07:36:39;;;;;;;4.03;3.83;;;19.90;39.10;;;;;;5057523;28;20249;-66
2023/12/01 07:39:05;;;;;;;4.23;3.93;;;19.80;39.10;;;;;;5058290;28;20502;-65
2023/12/01 07:41:32;;;;;;;4.23;3.93;;;19.80;39.00;;;;;;5043047;28;20554;-65
2023/12/01 07:43:57;;;;;;;3.90;3.60;;;19.80;39.00;;;;;;5054922;28;20236;-65
2023/12/01 07:46:23;;;;;;;4.27;4.07;;;19.80;39.10;;;;;;5055047;28;20440;-65
2023/12/01 07:48:49;;;;;;;4.47;4.17;;;19.80;39.00;;;;;;5057664;28;20228;-65
2023/12/01 07:51:16;;;;;;;4.80;4.50;;;19.80;39.00;;;;;;5052743;28;20611;-66
2023/12/01 07:53:44;;;;;;;4.93;4.63;;;19.80;39.00;;;;;;5065006;28;20250;-65
2023/12/01 07:56:11;;;;;;;4.50;4.10;;;19.80;39.10;;;;;;5063089;28;20468;-65
2023/12/01 07:58:36;;;;;;;4.37;3.97;;;19.80;39.00;;;;;;5050182;28;20534;-66
2023/12/01 08:01:03;;;;;;;4.70;4.30;;;19.80;39.00;;;;;;5060456;28;20473;-65
2023/12/01 08:03:29;;;;;;;4.03;3.70;;;19.80;39.00;;;;;;5055585;28;20245;-65
2023/12/01 08:05:54;;;;;;;4.17;3.87;;;19.90;39.10;;;;;;5037959;28;20825;-65
2023/12/01 08:08:20;;;;;;;4.13;3.93;;;19.80;39.00;;;;;;5042962;28;20707;-65
2023/12/01 08:10:46;;;;;;;4.40;4.10;;;19.80;39.20;;;;;;5048860;28;20244;-65
2023/12/01 08:13:11;;;;;;;4.50;3.70;;;19.80;39.00;;;;;;5043619;28;20235;-65
2023/12/01 08:15:37;;;;;;;3.93;3.73;;;19.80;39.00;;;;;;5043629;28;20229;-65
2023/12/01 08:18:04;;;;;;;3.60;3.40;;;19.80;39.00;;;;;;5042583;28;20482;-65
2023/12/01 08:20:30;;;;;;;3.63;3.43;;;19.80;39.00;;;;;;5041776;28;20225;-65
2023/12/01 08:22:57;;;;;;;3.60;3.40;;;19.80;39.00;;;;;;5041709;28;21215;-65
2023/12/01 08:25:23;;;;;;;4.00;3.70;;;19.80;39.00;;;;;;5043596;28;20462;-65
2023/12/01 08:27:49;;;;;;;3.90;3.70;;;19.80;39.00;;;;;;5040041;28;20994;-65
2023/12/01 08:30:17;;;;;;;4.50;4.20;;;19.80;39.00;;;;;;5043056;28;20320;-65
2023/12/01 08:32:43;;;;;;;3.73;3.40;;;19.80;39.00;;;;;;5041457;28;20450;-65
2023/12/01 08:35:09;;;;;;;4.30;3.60;;;19.80;39.00;;;;;;5039681;28;20229;-65
2023/12/01 08:37:34;;;;;;;4.07;3.77;;;19.80;39.00;;;;;;5044242;28;22947;-65
2023/12/01 08:40:00;;;;;;;4.30;4.03;;;19.80;39.00;;;;;;5042276;28;20262;-64
2023/12/01 08:42:26;;;;;;;3.60;3.40;;;19.80;39.00;;;;;;5035351;28;20241;-64
2023/12/01 08:44:52;;;;;;;4.13;3.83;;;19.80;39.00;;;;;;5046134;28;20429;-64
2023/12/01 08:47:20;;;;;;;4.37;4.07;;;19.80;39.00;;;;;;5045882;28;20565;-64
2023/12/01 08:49:46;;;;;;;3.53;3.23;;;19.80;39.00;;;;;;5044126;28;20279;-64
2023/12/01 08:52:11;;;;;;;3.53;3.33;;;19.80;39.00;;;;;;5045207;28;20885;-64
2023/12/01 08:54:37;;;;;;;4.40;4.10;;;19.80;39.00;;;;;;5047452;28;20217;-64
2023/12/01 08:57:03;;;;;;;3.70;3.40;;;19.80;39.00;;;;;;5039821;28;20339;-64
2023/12/01 08:59:28;;;;;;;3.80;3.50;;;19.80;39.00;;;;;;5043441;28;20218;-64
2023/12/01 09:01:54;;;;;;;3.80;3.50;;;19.80;39.00;;;;;;5047209;28;20238;-62
2023/12/01 09:04:21;;;;;;;3.70;3.50;;;19.80;39.00;;;;;;5058938;28;20759;-62
2023/12/01 09:06:46;;;;;;;3.33;3.13;;;19.80;39.00;;;;;;5067781;28;20613;-64
2023/12/01 09:09:12;;;;;;;3.63;3.33;;;19.80;39.00;;;;;;5064857;28;20443;-64
2023/12/01 09:11:38;;;;;;;3.47;3.27;;;19.80;39.00;;;;;;5064124;28;20224;-64
2023/12/01 09:14:03;;;;;;;3.53;3.33;;;19.80;39.00;;;;;;5063708;28;20229;-64
2023/12/01 09:16:29;;;;;;;3.93;3.00;;;19.80;39.00;;;;;;5054013;28;20243;-64
2023/12/01 09:18:54;;;;;;;3.40;3.20;;;19.80;39.00;;;;;;5054098;28;20318;-64
2023/12/01 09:21:20;;;;;;;3.17;2.97;;;19.80;39.00;;;;;;5036405;28;20229;-64
2023/12/01 09:23:46;;;;;;;3.30;3.07;;;19.80;39.00;;;;;;5068642;28;20221;-64
2023/12/01 09:26:17;;;;;;;3.70;3.50;;;19.80;39.00;;;;;;5056388;28;20306;-64
2023/12/01 09:28:43;;;;;;;3.60;3.30;;;19.70;39.00;;;;;;5058463;28;20229;-64
2023/12/01 09:31:10;;;;;;;3.20;3.00;;;19.70;39.00;;;;;;5065660;28;20451;-64
2023/12/01 09:33:37;;;;;;;3.40;3.20;;;19.70;39.00;;;;;;5070702;28;20588;-64
2023/12/01 09:36:04;;;;;;;3.30;3.00;;;19.70;39.00;;;;;;5070699;28;20792;-64
2023/12/01 09:38:31;;;;;;;3.33;2.63;;;19.70;39.00;;;;;;5064312;28;20428;-64
2023/12/01 09:40:57;;;;;;;2.90;2.70;;;19.70;39.00;;;;;;5059896;28;20434;-62
2023/12/01 09:43:23;;;;;;;4.00;3.70;;;19.70;39.00;;;;;;5063921;28;20850;-64
2023/12/01 09:45:53;;;;;;;3.20;3.00;;;19.70;39.00;;;;;;5064763;28;23241;-64
2023/12/01 09:48:19;;;;;;;2.80;2.70;;;19.70;39.00;;;;;;5067979;28;20572;-63
2023/12/01 09:50:47;;;;;;;3.63;3.10;;;19.70;39.00;;;;;;5060771;28;21106;-65
2023/12/01 09:53:12;;;;;;;3.73;3.50;;;19.70;39.00;;;;;;5057303;28;20450;-64
2023/12/01 09:55:38;;;;;;;3.00;2.80;;;19.80;39.00;;;;;;5058999;28;20555;-64
2023/12/01 09:58:04;;;;;;;3.00;2.80;;;19.70;39.00;;;;;;5055397;28;20221;-64
2023/12/01 10:00:30;;;;;;;2.93;2.73;;;19.70;39.00;;;;;;5063569;28;20294;-65
2023/12/01 10:02:55;;;;;;;3.57;3.27;;;19.70;39.00;;;;;;5062095;28;20267;-64
2023/12/01 10:05:21;;;;;;;3.27;3.07;;;19.70;39.00;;;;;;5048985;28;20303;-65
2023/12/01 10:07:50;;;;;;;3.70;3.50;;;19.70;39.00;;;;;;5041911;28;20267;-65
2023/12/01 10:10:24;;;;;;;3.53;3.33;;;19.70;39.00;;;;;;5045727;28;20254;-64
2023/12/01 10:13:04;;;;;;;3.23;3.03;;;19.70;39.70;;;;;;5041272;28;21030;-64
2023/12/01 10:15:31;;;;;;;2.87;2.67;;;19.70;39.00;;;;;;5046391;28;22079;-64
2023/12/01 10:18:20;;;;;;;3.20;3.00;;;19.70;39.00;;;;;;5041992;28;20483;-64
2023/12/01 10:20:59;;;;;;;2.27;2.13;;;19.70;39.70;;;;;;5047236;28;20433;-64
2023/12/01 10:23:27;;;;;;;2.90;2.70;;;19.70;39.00;;;;;;5040204;28;20461;-64
2023/12/01 10:25:53;;;;;;;2.40;2.30;;;19.70;39.00;;;;;;5046190;28;20441;-63
2023/12/01 10:28:19;;;;;;;3.27;3.07;;;19.70;39.00;;;;;;5048656;28;20439;-64
2023/12/01 10:30:58;;;;;;;3.13;2.93;;;19.70;39.00;;;;;;5045279;28;20221;-64
2023/12/01 10:33:28;;;;;;;2.80;2.60;;;19.70;39.00;;;;;;5048363;28;20440;-64
2023/12/01 10:36:04;;;;;;;3.03;2.83;;;19.70;39.00;;;;;;5043890;28;20532;-64
2023/12/01 10:38:33;;;;;;;2.47;2.27;;;19.70;39.00;;;;;;5044412;28;20532;-63
2023/12/01 10:40:59;;;;;;;2.93;2.73;;;19.70;39.00;;;;;;5043937;28;20441;-64
2023/12/01 10:43:27;;;;;;;2.73;2.53;;;19.70;38.30;;;;;;5044783;28;20563;-65
2023/12/01 10:45:53;;;;;;;2.40;2.30;;;19.70;39.00;;;;;;5044502;28;21070;-64
2023/12/01 10:48:20;;;;;;;2.60;2.50;;;19.70;39.00;;;;;;5044973;28;20443;-64
2023/12/01 10:50:47;;;;;;;2.53;2.33;;;19.70;39.00;;;;;;5039624;28;20476;-64
2023/12/01 10:53:16;;;;;;;2.70;2.50;;;19.70;39.00;;;;;;5041771;28;20444;-64
2023/12/01 10:55:47;;;;;;;2.30;2.10;;;19.70;39.00;;;;;;5049231;28;20985;-63
2023/12/01 10:58:23;;;;;;;2.60;2.40;;;19.70;39.00;;;;;;5041009;28;20463;-65
2023/12/01 11:01:00;;;;;;;2.73;2.53;;;19.70;39.00;;;;;;5043011;28;20955;-64
2023/12/01 11:03:30;;;;;;;2.60;2.50;;;19.70;39.00;;;;;;5048429;28;20455;-64
2023/12/01 11:06:06;;;;;;;2.60;2.40;;;19.70;39.00;;;;;;5048113;28;20458;-64
2023/12/01 11:09:09;;;;;;;2.50;2.37;;;19.70;39.00;;;;;;5057225;28;20448;-64
2023/12/01 11:11:54;;;;;;;2.20;2.10;;;19.70;39.00;;;;;;5055285;28;20477;-64
2023/12/01 11:14:21;;;;;;;2.43;2.33;;;19.70;39.00;;;;;;5065931;28;20587;-64
2023/12/01 11:16:48;;;;;;;2.60;2.40;;;19.70;39.00;;;;;;5057911;28;20452;-64
2023/12/01 11:19:15;;;;;;;2.50;2.40;;;19.70;39.00;;;;;;5067861;28;20432;-64
2023/12/01 11:21:44;;;;;;;2.60;2.40;;;19.70;39.00;;;;;;5043754;28;20474;-64
2023/12/01 11:24:24;;;;;;;2.20;2.10;;;19.70;39.00;;;;;;5061050;28;20472;-64
2023/12/01 11:26:51;;;;;;;2.43;2.33;;;19.70;39.00;;;;;;5057299;28;20505;-64
2023/12/01 11:29:33;;;;;;;2.07;1.97;;;19.70;39.00;;;;;;5052120;28;20433;-64
2023/12/01 11:31:59;;;;;;;2.93;2.73;;;19.70;39.00;;;;;;5045819;28;20547;-64
2023/12/01 11:34:25;;;;;;;2.23;2.13;;;19.70;39.00;;;;;;5054511;28;20446;-64
2023/12/01 11:36:54;;;;;;;2.00;1.90;;;19.70;39.00;;;;;;5046544;28;20229;-64
2023/12/01 11:39:26;;;;;;;2.50;2.30;;;19.70;39.10;;;;;;5049803;28;20587;-64
2023/12/01 11:42:12;;;;;;;2.13;2.03;;;19.70;39.70;;;;;;5050154;28;20770;-64
2023/12/01 11:44:40;;;;;;;2.30;2.20;;;19.70;39.00;;;;;;5050727;28;20533;-63
2023/12/01 11:47:08;;;;;;;2.70;2.50;;;19.70;39.10;;;;;;5050009;28;20506;-64
2023/12/01 11:49:39;;;;;;;2.37;2.20;;;19.70;39.10;;;;;;5054748;28;20495;-63
2023/12/01 11:52:07;;;;;;;3.20;3.00;;;19.70;39.00;;;;;;5049600;28;20436;-63
2023/12/01 11:54:35;;;;;;;2.30;2.20;;;19.70;39.00;;;;;;5047213;28;20458;-63
2023/12/01 11:57:02;;;;;;;2.57;2.47;;;19.70;39.00;;;;;;5043597;28;20520;-64
2023/12/01 11:59:28;;;;;;;2.30;2.10;;;19.70;39.00;;;;;;5065558;28;20457;-63
2023/12/01 12:01:54;;;;;;;2.20;2.10;;;19.70;39.00;;;;;;5063126;28;20445;-63
2023/12/01 12:04:20;;;;;;;2.90;2.70;;;19.70;39.00;;;;;;5054034;28;20229;-63
2023/12/01 12:06:46;;;;;;;2.30;2.20;;;19.70;39.00;;;;;;5063482;28;20791;-63
2023/12/01 12:09:17;;;;;;;2.20;2.10;;;19.70;39.00;;;;;;5065907;28;20240;-63
2023/12/01 12:11:55;;;;;;;2.40;2.30;;;19.70;39.00;;;;;;5060853;28;20483;-63
2023/12/01 12:14:25;;;;;;;2.53;2.43;;;19.70;39.00;;;;;;5059285;28;20437;-63
2023/12/01 12:16:51;;;;;;;2.23;2.13;;;19.70;39.00;;;;;;5062814;28;20501;-63
2023/12/01 12:19:18;;;;;;;2.40;2.27;;;19.70;39.00;;;;;;5054053;28;20459;-63
2023/12/01 12:21:44;;;;;;;2.00;1.90;;;19.70;39.00;;;;;;5064814;28;20454;-63
2023/12/01 12:24:13;;;;;;;2.53;2.43;;;19.70;39.00;;;;;;5064542;28;20457;-63
2023/12/01 12:26:39;;;;;;;2.37;2.23;;;19.70;39.00;;;;;;5064808;28;20565;-63
2023/12/01 12:29:06;;;;;;;2.70;2.53;;;19.70;39.00;;;;;;5067873;28;20503;-63
2023/12/01 12:31:36;;;;;;;2.80;2.60;;;19.70;39.00;;;;;;5066658;28;20526;-63
2023/12/01 12:34:07;;;;;;;2.40;2.30;;;19.70;39.00;;;;;;5064265;28;20462;-63
2023/12/01 12:36:35;;;;;;;2.27;2.17;;;19.70;39.00;;;;;;5071829;28;20465;-64
2023/12/01 12:39:13;;;;;;;2.57;2.47;;;19.70;39.30;;;;;;5065316;28;20499;-63
2023/12/01 12:41:40;;;;;;;2.20;2.10;;;19.70;39.00;;;;;;5067923;28;21531;-63
2023/12/01 12:44:07;;;;;;;2.37;2.27;;;19.70;39.00;;;;;;5062784;28;20446;-63
2023/12/01 12:46:34;;;;;;;2.30;2.20;;;19.70;39.00;;;;;;5068565;28;20468;-63
2023/12/01 12:49:18;;;;;;;2.47;2.37;;;19.70;39.00;;;;;;5068073;28;20808;-63
2023/12/01 12:51:44;;;;;;;2.23;2.13;;;19.70;39.00;;;;;;5065258;28;20544;-63